createdAt,value
2018-08-17T00:00:57.664Z,970.68
2018-08-17T00:01:57.653Z,970.66
2018-08-17T00:02:57.652Z,970.68
2018-08-17T00:03:57.654Z,970.66
2018-08-17T00:04:57.646Z,970.66
2018-08-17T00:05:57.642Z,970.71
2018-08-17T00:06:57.640Z,970.69
2018-08-17T00:07:57.638Z,970.67
2018-08-17T00:08:57.634Z,970.67
2018-08-17T00:09:57.633Z,970.68
2018-08-17T00:10:57.630Z,970.73
2018-08-17T00:11:57.633Z,970.68
2018-08-17T00:12:57.624Z,970.67
2018-08-17T00:13:57.628Z,970.73
2018-08-17T00:14:57.626Z,970.70
2018-08-17T00:15:57.617Z,970.70
2018-08-17T00:16:57.613Z,970.71
2018-08-17T00:17:57.610Z,970.67
2018-08-17T00:18:57.608Z,970.70
2018-08-17T00:19:57.604Z,970.68
2018-08-17T00:20:57.601Z,970.69
2018-08-17T00:21:57.599Z,970.66
2018-08-17T00:22:57.597Z,970.66
2018-08-17T00:23:57.599Z,970.67
2018-08-17T00:24:57.591Z,970.67
2018-08-17T00:25:57.595Z,970.62
2018-08-17T00:26:57.591Z,970.67
2018-08-17T00:27:57.588Z,970.61
2018-08-17T00:28:57.584Z,970.63
2018-08-17T00:29:57.583Z,970.63
2018-08-17T00:30:57.577Z,970.60
2018-08-17T00:31:57.572Z,970.64
2018-08-17T00:32:57.567Z,970.65
2018-08-17T00:33:57.569Z,970.62
2018-08-17T00:34:57.564Z,970.59
2018-08-17T00:35:57.567Z,970.63
2018-08-17T00:36:57.561Z,970.59
2018-08-17T00:37:57.559Z,970.59
2018-08-17T00:38:57.557Z,970.59
2018-08-17T00:39:57.549Z,970.58
2018-08-17T00:40:57.547Z,970.58
2018-08-17T00:41:57.542Z,970.57
2018-08-17T00:42:57.541Z,970.58
2018-08-17T00:43:57.538Z,970.60
2018-08-17T00:44:57.537Z,970.59
2018-08-17T00:45:57.537Z,970.60
2018-08-17T00:46:57.529Z,970.57
2018-08-17T00:47:57.584Z,970.60
2018-08-17T00:48:57.526Z,970.61
2018-08-17T00:49:57.553Z,970.63
2018-08-17T00:50:57.519Z,970.62
2018-08-17T00:51:57.518Z,970.64
2018-08-17T00:52:57.512Z,970.63
2018-08-17T00:53:57.510Z,970.62
2018-08-17T00:54:57.512Z,970.63
2018-08-17T00:55:57.501Z,970.67
2018-08-17T00:56:57.506Z,970.66
2018-08-17T00:57:57.502Z,970.63
2018-08-17T00:58:57.499Z,970.68
2018-08-17T00:59:57.492Z,970.66
2018-08-17T01:00:57.493Z,970.68
2018-08-17T01:01:57.489Z,970.70
2018-08-17T01:02:57.483Z,970.66
2018-08-17T01:03:57.477Z,970.72
2018-08-17T01:04:57.476Z,970.70
2018-08-17T01:05:57.471Z,970.70
2018-08-17T01:06:57.468Z,970.70
2018-08-17T01:07:57.467Z,970.74
2018-08-17T01:08:57.467Z,970.72
2018-08-17T01:09:57.458Z,970.74
2018-08-17T01:10:57.462Z,970.75
2018-08-17T01:11:57.462Z,970.74
2018-08-17T01:12:57.456Z,970.74
2018-08-17T01:13:57.449Z,970.72
2018-08-17T01:14:57.480Z,970.73
2018-08-17T01:15:57.461Z,970.75
2018-08-17T01:16:57.442Z,970.76
2018-08-17T01:17:57.438Z,970.74
2018-08-17T01:18:57.434Z,970.73
2018-08-17T01:19:57.428Z,970.73
2018-08-17T01:20:57.430Z,970.73
2018-08-17T01:21:57.424Z,970.73
2018-08-17T01:22:57.424Z,970.72
2018-08-17T01:23:57.419Z,970.71
2018-08-17T01:24:57.421Z,970.71
2018-08-17T01:25:57.412Z,970.73
2018-08-17T01:26:57.414Z,970.70
2018-08-17T01:27:57.404Z,970.70
2018-08-17T01:28:57.400Z,970.71
2018-08-17T01:29:57.400Z,970.69
2018-08-17T01:30:57.394Z,970.69
2018-08-17T01:31:57.395Z,970.71
2018-08-17T01:32:57.392Z,970.74
2018-08-17T01:33:57.389Z,970.76
2018-08-17T01:34:57.381Z,970.76
2018-08-17T01:35:57.380Z,970.76
2018-08-17T01:36:57.374Z,970.70
2018-08-17T01:37:57.380Z,970.74
2018-08-17T01:38:57.373Z,970.77
2018-08-17T01:39:57.365Z,970.80
2018-08-17T01:40:57.363Z,970.82
2018-08-17T01:41:57.359Z,970.77
2018-08-17T01:42:57.360Z,970.79
2018-08-17T01:43:57.361Z,970.79
2018-08-17T01:44:57.350Z,970.81
2018-08-17T01:45:57.356Z,970.79
2018-08-17T01:46:57.350Z,970.79
2018-08-17T01:47:57.341Z,970.78
2018-08-17T01:48:57.340Z,970.79
2018-08-17T01:49:57.333Z,970.80
2018-08-17T01:50:57.341Z,970.78
2018-08-17T01:51:57.333Z,970.80
2018-08-17T01:52:57.322Z,970.77
2018-08-17T01:53:57.320Z,970.80
2018-08-17T01:54:57.317Z,970.77
2018-08-17T01:55:57.314Z,970.77
2018-08-17T01:56:57.313Z,970.76
2018-08-17T01:57:57.316Z,970.76
2018-08-17T01:58:57.308Z,970.77
2018-08-17T01:59:57.304Z,970.76
2018-08-17T02:00:57.295Z,970.76
2018-08-17T02:01:57.293Z,970.75
2018-08-17T02:02:57.295Z,970.74
2018-08-17T02:03:57.287Z,970.72
2018-08-17T02:04:57.284Z,970.74
2018-08-17T02:05:57.281Z,970.72
2018-08-17T02:06:57.277Z,970.70
2018-08-17T02:07:57.275Z,970.69
2018-08-17T02:08:57.269Z,970.67
2018-08-17T02:09:57.268Z,970.68
2018-08-17T02:10:57.264Z,970.66
2018-08-17T02:11:57.264Z,970.64
2018-08-17T02:12:57.254Z,970.62
2018-08-17T02:13:57.255Z,970.61
2018-08-17T02:14:57.253Z,970.61
2018-08-17T02:15:57.255Z,970.65
2018-08-17T02:16:57.247Z,970.61
2018-08-17T02:17:57.244Z,970.63
2018-08-17T02:18:57.238Z,970.66
2018-08-17T02:19:57.233Z,970.69
2018-08-17T02:20:57.235Z,970.68
2018-08-17T02:21:57.226Z,970.67
2018-08-17T02:22:57.227Z,970.69
2018-08-17T02:23:57.219Z,970.71
2018-08-17T02:24:57.214Z,970.67
2018-08-17T02:25:57.213Z,970.67
2018-08-17T02:26:57.209Z,970.66
2018-08-17T02:27:57.205Z,970.66
2018-08-17T02:28:57.201Z,970.69
2018-08-17T02:29:57.198Z,970.67
2018-08-17T02:30:57.202Z,970.70
2018-08-17T02:31:57.192Z,970.66
2018-08-17T02:32:57.188Z,970.63
2018-08-17T02:33:57.190Z,970.63
2018-08-17T02:34:57.182Z,970.69
2018-08-17T02:35:57.186Z,970.68
2018-08-17T02:36:57.176Z,970.66
2018-08-17T02:37:57.171Z,970.66
2018-08-17T02:38:57.169Z,970.65
2018-08-17T02:39:57.165Z,970.63
2018-08-17T02:40:57.161Z,970.61
2018-08-17T02:41:57.161Z,970.64
2018-08-17T02:42:57.157Z,970.65
2018-08-17T02:43:57.156Z,970.63
2018-08-17T02:44:57.146Z,970.66
2018-08-17T02:45:57.150Z,970.66
2018-08-17T02:46:57.141Z,970.69
2018-08-17T02:47:57.141Z,970.66
2018-08-17T02:48:57.132Z,970.67
2018-08-17T02:49:57.130Z,970.70
2018-08-17T02:50:57.132Z,970.65
2018-08-17T02:51:57.124Z,970.68
2018-08-17T02:52:57.127Z,970.69
2018-08-17T02:53:57.116Z,970.69
2018-08-17T02:54:57.113Z,970.69
2018-08-17T02:55:57.112Z,970.70
2018-08-17T02:56:57.105Z,970.71
2018-08-17T02:57:57.107Z,970.73
2018-08-17T02:58:57.105Z,970.70
2018-08-17T02:59:57.104Z,970.69
2018-08-17T03:00:57.093Z,970.71
2018-08-17T03:01:57.089Z,970.69
2018-08-17T03:02:57.087Z,970.74
2018-08-17T03:03:57.089Z,970.69
2018-08-17T03:04:57.078Z,970.70
2018-08-17T03:05:57.075Z,970.72
2018-08-17T03:06:57.079Z,970.75
2018-08-17T03:07:57.070Z,970.67
2018-08-17T03:08:57.072Z,970.73
2018-08-17T03:09:57.060Z,970.70
2018-08-17T03:10:57.062Z,970.74
2018-08-17T03:11:57.055Z,970.70
2018-08-17T03:12:57.052Z,970.74
2018-08-17T03:13:57.055Z,970.75
2018-08-17T03:14:57.050Z,970.69
2018-08-17T03:15:57.044Z,970.73
2018-08-17T03:16:57.047Z,970.73
2018-08-17T03:17:57.032Z,970.71
2018-08-17T03:18:57.027Z,970.72
2018-08-17T03:19:57.023Z,970.71
2018-08-17T03:20:57.020Z,970.73
2018-08-17T03:21:57.020Z,970.74
2018-08-17T03:22:57.013Z,970.72
2018-08-17T03:23:57.010Z,970.73
2018-08-17T03:24:57.006Z,970.75
2018-08-17T03:25:57.005Z,970.77
2018-08-17T03:26:57.008Z,970.80
2018-08-17T03:27:56.997Z,970.77
2018-08-17T03:28:56.996Z,970.79
2018-08-17T03:29:56.987Z,970.79
2018-08-17T03:30:56.984Z,970.83
2018-08-17T03:31:56.981Z,970.80
2018-08-17T03:32:56.983Z,970.78
2018-08-17T03:33:56.971Z,970.78
2018-08-17T03:34:56.968Z,970.78
2018-08-17T03:35:56.963Z,970.80
2018-08-17T03:36:56.966Z,970.81
2018-08-17T03:37:56.978Z,970.85
2018-08-17T03:38:56.960Z,970.85
2018-08-17T03:39:56.953Z,970.85
2018-08-17T03:40:56.945Z,970.86
2018-08-17T03:41:56.941Z,970.88
2018-08-17T03:42:56.939Z,970.93
2018-08-17T03:43:56.935Z,970.92
2018-08-17T03:44:56.936Z,970.96
2018-08-17T03:45:56.932Z,970.91
2018-08-17T03:46:56.927Z,970.95
2018-08-17T03:47:56.920Z,970.95
2018-08-17T03:48:56.920Z,970.96
2018-08-17T03:49:56.912Z,970.99
2018-08-17T03:50:56.908Z,970.98
2018-08-17T03:51:56.906Z,971.01
2018-08-17T03:52:56.903Z,971.05
2018-08-17T03:53:56.898Z,971.07
2018-08-17T03:54:56.893Z,971.08
2018-08-17T03:55:56.890Z,971.09
2018-08-17T03:56:56.888Z,971.08
2018-08-17T03:57:56.896Z,971.13
2018-08-17T03:58:56.879Z,971.14
2018-08-17T03:59:56.880Z,971.14
2018-08-17T04:00:56.885Z,971.12
2018-08-17T04:01:56.866Z,971.18
2018-08-17T04:02:56.870Z,971.12
2018-08-17T04:03:56.869Z,971.15
2018-08-17T04:04:56.861Z,971.17
2018-08-17T04:05:56.852Z,971.23
2018-08-17T04:06:56.852Z,971.20
2018-08-17T04:07:56.850Z,971.19
2018-08-17T04:08:56.846Z,971.19
2018-08-17T04:09:56.840Z,971.22
2018-08-17T04:10:56.836Z,971.22
2018-08-17T04:11:56.830Z,971.22
2018-08-17T04:12:56.832Z,971.20
2018-08-17T04:13:56.833Z,971.19
2018-08-17T04:14:56.821Z,971.20
2018-08-17T04:15:56.819Z,971.22
2018-08-17T04:16:56.816Z,971.16
2018-08-17T04:17:56.810Z,971.19
2018-08-17T04:18:56.804Z,971.19
2018-08-17T04:19:56.803Z,971.20
2018-08-17T04:20:56.794Z,971.17
2018-08-17T04:21:56.797Z,971.17
2018-08-17T04:22:56.789Z,971.20
2018-08-17T04:23:56.943Z,971.21
2018-08-17T04:24:56.782Z,971.21
2018-08-17T04:25:56.776Z,971.22
2018-08-17T04:26:56.773Z,971.23
2018-08-17T04:27:56.774Z,971.26
2018-08-17T04:28:56.766Z,971.30
2018-08-17T04:29:56.774Z,971.25
2018-08-17T04:30:56.763Z,971.28
2018-08-17T04:31:56.754Z,971.26
2018-08-17T04:32:56.750Z,971.31
2018-08-17T04:33:56.747Z,971.29
2018-08-17T04:34:56.750Z,971.32
2018-08-17T04:35:56.745Z,971.33
2018-08-17T04:36:56.736Z,971.33
2018-08-17T04:37:56.734Z,971.35
2018-08-17T04:38:56.732Z,971.36
2018-08-17T04:39:56.726Z,971.36
2018-08-17T04:40:56.727Z,971.41
2018-08-17T04:41:56.721Z,971.38
2018-08-17T04:42:56.714Z,971.41
2018-08-17T04:43:56.715Z,971.40
2018-08-17T04:44:56.705Z,971.44
2018-08-17T04:45:56.705Z,971.44
2018-08-17T04:46:56.702Z,971.47
2018-08-17T04:47:56.696Z,971.45
2018-08-17T04:48:56.690Z,971.45
2018-08-17T04:49:56.691Z,971.48
2018-08-17T04:50:56.691Z,971.47
2018-08-17T04:51:56.687Z,971.51
2018-08-17T04:52:56.683Z,971.52
2018-08-17T04:53:56.675Z,971.53
2018-08-17T04:54:56.670Z,971.51
2018-08-17T04:55:56.667Z,971.54
2018-08-17T04:56:56.664Z,971.49
2018-08-17T04:57:56.658Z,971.52
2018-08-17T04:58:56.657Z,971.49
2018-08-17T04:59:56.651Z,971.47
2018-08-17T05:00:56.645Z,971.47
2018-08-17T05:01:56.646Z,971.49
2018-08-17T05:02:56.641Z,971.48
2018-08-17T05:03:56.642Z,971.52
2018-08-17T05:04:56.631Z,971.53
2018-08-17T05:05:56.628Z,971.58
2018-08-17T05:06:56.625Z,971.56
2018-08-17T05:07:56.624Z,971.60
2018-08-17T05:08:56.657Z,971.55
2018-08-17T05:09:56.618Z,971.56
2018-08-17T05:10:56.612Z,971.59
2018-08-17T05:11:56.606Z,971.60
2018-08-17T05:12:56.606Z,971.55
2018-08-17T05:13:56.597Z,971.59
2018-08-17T05:14:56.602Z,971.57
2018-08-17T05:15:56.596Z,971.57
2018-08-17T05:16:56.588Z,971.56
2018-08-17T05:17:56.582Z,971.61
2018-08-17T05:18:56.581Z,971.59
2018-08-17T05:19:56.587Z,971.59
2018-08-17T05:20:56.572Z,971.58
2018-08-17T05:21:56.604Z,971.64
2018-08-17T05:22:56.566Z,971.63
2018-08-17T05:23:56.564Z,971.63
2018-08-17T05:24:56.559Z,971.64
2018-08-17T05:25:56.562Z,971.61
2018-08-17T05:26:56.558Z,971.62
2018-08-17T05:27:56.554Z,971.65
2018-08-17T05:28:56.549Z,971.65
2018-08-17T05:29:56.543Z,971.66
2018-08-17T05:30:56.539Z,971.65
2018-08-17T05:31:56.536Z,971.68
2018-08-17T05:32:56.533Z,971.71
2018-08-17T05:33:56.539Z,971.70
2018-08-17T05:34:56.529Z,971.70
2018-08-17T05:35:56.574Z,971.76
2018-08-17T05:36:56.524Z,971.75
2018-08-17T05:37:56.520Z,971.78
2018-08-17T05:38:56.521Z,971.80
2018-08-17T05:39:56.521Z,971.78
2018-08-17T05:40:56.517Z,971.80
2018-08-17T05:41:56.517Z,971.78
2018-08-17T05:42:56.514Z,971.75
2018-08-17T05:43:56.503Z,971.77
2018-08-17T05:44:56.524Z,971.77
2018-08-17T05:45:56.500Z,971.78
2018-08-17T05:46:56.497Z,971.74
2018-08-17T05:47:56.496Z,971.72
2018-08-17T05:48:56.496Z,971.73
2018-08-17T05:49:56.487Z,971.76
2018-08-17T05:50:56.485Z,971.73
2018-08-17T05:51:56.485Z,971.81
2018-08-17T05:52:56.487Z,971.74
2018-08-17T05:53:56.481Z,971.75
2018-08-17T05:54:56.578Z,971.74
2018-08-17T05:55:56.473Z,971.73
2018-08-17T05:56:56.475Z,971.76
2018-08-17T05:57:56.474Z,971.75
2018-08-17T05:58:56.466Z,971.76
2018-08-17T05:59:56.464Z,971.78
2018-08-17T06:00:56.463Z,971.81
2018-08-17T06:01:56.459Z,971.81
2018-08-17T06:02:56.538Z,971.77
2018-08-17T06:03:56.459Z,971.78
2018-08-17T06:04:56.556Z,971.80
2018-08-17T06:05:56.451Z,971.78
2018-08-17T06:06:56.452Z,971.82
2018-08-17T06:07:56.454Z,971.85
2018-08-17T06:08:56.447Z,971.87
2018-08-17T06:09:56.495Z,971.88
2018-08-17T06:10:56.506Z,971.84
2018-08-17T06:11:56.451Z,971.86
2018-08-17T06:12:56.439Z,971.91
2018-08-17T06:13:56.442Z,971.90
2018-08-17T06:14:56.437Z,971.93
2018-08-17T06:15:56.440Z,971.88
2018-08-17T06:16:56.440Z,971.92
2018-08-17T06:17:56.431Z,971.92
2018-08-17T06:18:56.428Z,971.89
2018-08-17T06:19:56.430Z,971.93
2018-08-17T06:20:56.425Z,971.90
2018-08-17T06:21:56.427Z,971.89
2018-08-17T06:22:56.424Z,971.87
2018-08-17T06:23:56.422Z,971.91
2018-08-17T06:24:56.419Z,971.95
2018-08-17T06:25:56.423Z,971.91
2018-08-17T06:26:56.417Z,971.94
2018-08-17T06:27:56.425Z,971.91
2018-08-17T06:28:56.420Z,971.93
2018-08-17T06:29:56.422Z,971.97
2018-08-17T06:30:56.414Z,971.95
2018-08-17T06:31:56.421Z,971.95
2018-08-17T06:32:56.411Z,971.94
2018-08-17T06:33:56.413Z,971.98
2018-08-17T06:34:56.409Z,971.96
2018-08-17T06:35:56.463Z,971.97
2018-08-17T06:36:56.409Z,971.99
2018-08-17T06:37:56.416Z,971.97
2018-08-17T06:38:56.412Z,971.95
2018-08-17T06:39:56.408Z,971.96
2018-08-17T06:40:56.404Z,971.95
2018-08-17T06:41:56.403Z,971.97
2018-08-17T06:42:56.404Z,971.96
2018-08-17T06:43:56.407Z,971.97
2018-08-17T06:44:56.403Z,972.00
2018-08-17T06:45:56.402Z,971.97
2018-08-17T06:46:56.403Z,971.95
2018-08-17T06:47:56.407Z,971.93
2018-08-17T06:48:56.403Z,971.95
2018-08-17T06:49:56.399Z,971.96
2018-08-17T06:50:56.476Z,971.96
2018-08-17T06:51:56.397Z,971.99
2018-08-17T06:52:56.399Z,971.99
2018-08-17T06:53:56.401Z,972.02
2018-08-17T06:54:56.401Z,972.02
2018-08-17T06:55:56.398Z,972.03
2018-08-17T06:56:56.454Z,972.03
2018-08-17T06:57:56.395Z,972.04
2018-08-17T06:58:56.396Z,972.05
2018-08-17T06:59:56.395Z,972.03
2018-08-17T07:00:56.392Z,972.01
2018-08-17T07:01:56.398Z,972.01
2018-08-17T07:02:56.396Z,972.01
2018-08-17T07:03:56.394Z,972.05
2018-08-17T07:04:56.396Z,972.03
2018-08-17T07:05:56.391Z,972.06
2018-08-17T07:06:56.406Z,972.05
2018-08-17T07:07:56.406Z,972.04
2018-08-17T07:08:56.459Z,972.06
2018-08-17T07:09:56.395Z,972.09
2018-08-17T07:10:56.397Z,972.07
2018-08-17T07:11:56.397Z,972.04
2018-08-17T07:12:56.398Z,972.08
2018-08-17T07:13:56.391Z,972.08
2018-08-17T07:14:56.392Z,972.08
2018-08-17T07:15:56.438Z,972.07
2018-08-17T07:16:56.394Z,972.07
2018-08-17T07:17:56.392Z,972.11
2018-08-17T07:18:56.397Z,972.11
2018-08-17T07:19:56.393Z,972.12
2018-08-17T07:20:56.392Z,972.12
2018-08-17T07:21:56.392Z,972.12
2018-08-17T07:22:56.395Z,972.13
2018-08-17T07:23:56.402Z,972.14
2018-08-17T07:24:56.397Z,972.14
2018-08-17T07:25:56.398Z,972.16
2018-08-17T07:26:56.394Z,972.16
2018-08-17T07:27:56.561Z,972.17
2018-08-17T07:28:56.395Z,972.15
2018-08-17T07:29:56.394Z,972.21
2018-08-17T07:30:56.396Z,972.17
2018-08-17T07:31:56.395Z,972.22
2018-08-17T07:32:56.396Z,972.24
2018-08-17T07:33:56.396Z,972.22
2018-08-17T07:34:56.397Z,972.22
2018-08-17T07:35:56.470Z,972.24
2018-08-17T07:36:56.398Z,972.20
2018-08-17T07:37:56.404Z,972.25
2018-08-17T07:38:56.404Z,972.26
2018-08-17T07:39:56.406Z,972.25
2018-08-17T07:40:56.404Z,972.24
2018-08-17T07:41:56.414Z,972.24
2018-08-17T07:42:56.410Z,972.21
2018-08-17T07:43:56.407Z,972.26
2018-08-17T07:44:56.407Z,972.22
2018-08-17T07:45:56.410Z,972.24
2018-08-17T07:46:56.408Z,972.29
2018-08-17T07:47:56.501Z,972.29
2018-08-17T07:48:56.413Z,972.27
2018-08-17T07:49:56.410Z,972.29
2018-08-17T07:50:56.412Z,972.30
2018-08-17T07:51:56.410Z,972.29
2018-08-17T07:52:56.415Z,972.27
2018-08-17T07:53:56.412Z,972.28
2018-08-17T07:54:56.412Z,972.27
2018-08-17T07:55:56.413Z,972.28
2018-08-17T07:56:56.414Z,972.23
2018-08-17T07:57:56.419Z,972.26
2018-08-17T07:58:56.429Z,972.27
2018-08-17T07:59:56.419Z,972.29
2018-08-17T08:00:56.421Z,972.27
2018-08-17T08:01:56.417Z,972.34
2018-08-17T08:02:56.421Z,972.32
2018-08-17T08:03:56.421Z,972.31
2018-08-17T08:04:56.422Z,972.29
2018-08-17T08:05:56.425Z,972.26
2018-08-17T08:06:56.425Z,972.27
2018-08-17T08:07:56.430Z,972.30
2018-08-17T08:08:56.426Z,972.33
2018-08-17T08:09:56.461Z,972.35
2018-08-17T08:10:56.439Z,972.43
2018-08-17T08:11:56.434Z,972.46
2018-08-17T08:12:56.432Z,972.43
2018-08-17T08:13:56.436Z,972.42
2018-08-17T08:14:56.442Z,972.46
2018-08-17T08:15:56.443Z,972.46
2018-08-17T08:16:56.441Z,972.48
2018-08-17T08:17:56.440Z,972.52
2018-08-17T08:18:56.442Z,972.56
2018-08-17T08:19:56.448Z,972.62
2018-08-17T08:20:56.451Z,972.67
2018-08-17T08:21:56.449Z,972.64
2018-08-17T08:22:56.448Z,972.67
2018-08-17T08:23:56.452Z,972.68
2018-08-17T08:24:56.457Z,972.70
2018-08-17T08:25:56.478Z,972.70
2018-08-17T08:26:56.460Z,972.73
2018-08-17T08:27:56.455Z,972.73
2018-08-17T08:28:56.464Z,972.74
2018-08-17T08:29:56.463Z,972.78
2018-08-17T08:30:56.461Z,972.77
2018-08-17T08:31:56.467Z,972.73
2018-08-17T08:32:56.465Z,972.74
2018-08-17T08:33:56.463Z,972.74
2018-08-17T08:34:56.464Z,972.74
2018-08-17T08:35:56.466Z,972.74
2018-08-17T08:36:56.465Z,972.74
2018-08-17T08:37:56.468Z,972.68
2018-08-17T08:38:56.475Z,972.73
2018-08-17T08:39:56.621Z,972.75
2018-08-17T08:40:56.474Z,972.73
2018-08-17T08:41:56.475Z,972.70
2018-08-17T08:42:56.473Z,972.69
2018-08-17T08:43:56.475Z,972.71
2018-08-17T08:44:56.472Z,972.69
2018-08-17T08:45:56.558Z,972.66
2018-08-17T08:46:56.476Z,972.68
2018-08-17T08:47:56.474Z,972.67
2018-08-17T08:48:56.479Z,972.71
2018-08-17T08:49:56.474Z,972.73
2018-08-17T08:50:56.481Z,972.75
2018-08-17T08:51:56.474Z,972.75
2018-08-17T08:52:56.481Z,972.79
2018-08-17T08:53:56.477Z,972.75
2018-08-17T08:54:56.476Z,972.71
2018-08-17T08:55:56.546Z,972.71
2018-08-17T08:56:56.476Z,972.69
2018-08-17T08:57:56.480Z,972.69
2018-08-17T08:58:56.481Z,972.67
2018-08-17T08:59:56.481Z,972.69
2018-08-17T09:00:56.485Z,972.69
2018-08-17T09:01:56.480Z,972.73
2018-08-17T09:02:56.485Z,972.68
2018-08-17T09:03:56.485Z,972.66
2018-08-17T09:04:56.489Z,972.66
2018-08-17T09:05:56.481Z,972.63
2018-08-17T09:06:56.487Z,972.66
2018-08-17T09:07:56.487Z,972.61
2018-08-17T09:08:56.484Z,972.62
2018-08-17T09:09:56.491Z,972.64
2018-08-17T09:10:56.486Z,972.59
2018-08-17T09:11:56.493Z,972.61
2018-08-17T09:12:56.493Z,972.63
2018-08-17T09:13:56.492Z,972.60
2018-08-17T09:14:56.491Z,972.63
2018-08-17T09:15:56.491Z,972.62
2018-08-17T09:16:56.491Z,972.61
2018-08-17T09:17:56.493Z,972.58
2018-08-17T09:18:56.497Z,972.62
2018-08-17T09:19:56.494Z,972.59
2018-08-17T09:20:56.499Z,972.65
2018-08-17T09:21:56.502Z,972.64
2018-08-17T09:22:56.504Z,972.60
2018-08-17T09:23:56.502Z,972.60
2018-08-17T09:24:56.501Z,972.62
2018-08-17T09:25:56.502Z,972.59
2018-08-17T09:26:56.506Z,972.59
2018-08-17T09:27:56.511Z,972.54
2018-08-17T09:28:56.505Z,972.57
2018-08-17T09:29:56.560Z,972.55
2018-08-17T09:30:56.512Z,972.54
2018-08-17T09:31:56.518Z,972.55
2018-08-17T09:32:56.518Z,972.53
2018-08-17T09:33:56.519Z,972.54
2018-08-17T09:34:56.515Z,972.51
2018-08-17T09:35:56.576Z,972.49
2018-08-17T09:36:56.518Z,972.49
2018-08-17T09:37:56.521Z,972.51
2018-08-17T09:38:56.529Z,972.46
2018-08-17T09:39:56.531Z,972.43
2018-08-17T09:40:56.524Z,972.40
2018-08-17T09:41:56.589Z,972.42
2018-08-17T09:42:56.529Z,972.36
2018-08-17T09:43:56.536Z,972.40
2018-08-17T09:44:56.540Z,972.37
2018-08-17T09:45:56.535Z,972.41
2018-08-17T09:46:56.536Z,972.41
2018-08-17T09:47:56.539Z,972.40
2018-08-17T09:48:56.543Z,972.42
2018-08-17T09:49:56.547Z,972.39
2018-08-17T09:50:56.550Z,972.40
2018-08-17T09:51:56.547Z,972.40
2018-08-17T09:52:56.549Z,972.37
2018-08-17T09:53:56.551Z,972.39
2018-08-17T09:54:56.553Z,972.38
2018-08-17T09:55:56.555Z,972.39
2018-08-17T09:56:56.563Z,972.36
2018-08-17T09:57:56.561Z,972.37
2018-08-17T09:58:56.567Z,972.34
2018-08-17T09:59:56.563Z,972.35
2018-08-17T10:00:56.565Z,972.34
2018-08-17T10:01:56.571Z,972.34
2018-08-17T10:02:56.572Z,972.28
2018-08-17T10:03:56.591Z,972.25
2018-08-17T10:04:56.577Z,972.25
2018-08-17T10:05:56.578Z,972.24
2018-08-17T10:06:56.580Z,972.26
2018-08-17T10:07:56.580Z,972.28
2018-08-17T10:08:56.588Z,972.25
2018-08-17T10:09:56.591Z,972.24
2018-08-17T10:10:56.586Z,972.23
2018-08-17T10:11:56.591Z,972.28
2018-08-17T10:12:56.591Z,972.22
2018-08-17T10:13:56.596Z,972.20
2018-08-17T10:14:56.595Z,972.18
2018-08-17T10:15:56.601Z,972.17
2018-08-17T10:16:56.599Z,972.15
2018-08-17T10:17:56.607Z,972.17
2018-08-17T10:18:56.606Z,972.11
2018-08-17T10:19:56.616Z,972.10
2018-08-17T10:20:56.804Z,972.12
2018-08-17T10:21:56.853Z,972.10
2018-08-17T10:22:56.617Z,972.12
2018-08-17T10:23:56.624Z,972.08
2018-08-17T10:24:56.631Z,972.08
2018-08-17T10:25:56.624Z,972.06
2018-08-17T10:26:56.625Z,972.08
2018-08-17T10:27:56.630Z,972.09
2018-08-17T10:28:56.631Z,972.07
2018-08-17T10:29:56.637Z,972.07
2018-08-17T10:30:56.637Z,972.05
2018-08-17T10:31:56.645Z,972.04
2018-08-17T10:32:56.641Z,972.03
2018-08-17T10:33:56.729Z,972.05
2018-08-17T10:34:56.691Z,972.03
2018-08-17T10:35:56.656Z,972.02
2018-08-17T10:36:56.657Z,972.01
2018-08-17T10:37:56.657Z,972.00
2018-08-17T10:38:56.667Z,971.98
2018-08-17T10:39:56.667Z,971.98
2018-08-17T10:40:56.668Z,971.96
2018-08-17T10:41:56.669Z,971.97
2018-08-17T10:42:56.685Z,972.00
2018-08-17T10:43:56.677Z,971.98
2018-08-17T10:44:56.683Z,972.03
2018-08-17T10:45:56.685Z,971.92
2018-08-17T10:46:56.690Z,971.93
2018-08-17T10:47:56.691Z,971.92
2018-08-17T10:48:56.769Z,971.89
2018-08-17T10:49:56.701Z,971.87
2018-08-17T10:50:56.698Z,971.87
2018-08-17T10:51:56.702Z,971.85
2018-08-17T10:52:56.707Z,971.86
2018-08-17T10:53:56.706Z,971.84
2018-08-17T10:54:56.712Z,971.83
2018-08-17T10:55:56.720Z,971.76
2018-08-17T10:56:56.716Z,971.74
2018-08-17T10:57:56.719Z,971.77
2018-08-17T10:58:56.722Z,971.75
2018-08-17T10:59:56.729Z,971.76
2018-08-17T11:00:56.728Z,971.72
2018-08-17T11:01:56.736Z,971.75
2018-08-17T11:02:56.742Z,971.79
2018-08-17T11:03:56.744Z,971.82
2018-08-17T11:04:56.747Z,971.77
2018-08-17T11:05:56.745Z,971.77
2018-08-17T11:06:56.750Z,971.76
2018-08-17T11:07:56.756Z,971.79
2018-08-17T11:08:56.756Z,971.75
2018-08-17T11:09:56.761Z,971.74
2018-08-17T11:10:56.778Z,971.76
2018-08-17T11:11:56.771Z,971.75
2018-08-17T11:12:56.773Z,971.74
2018-08-17T11:13:56.776Z,971.76
2018-08-17T11:14:56.779Z,971.76
2018-08-17T11:15:56.787Z,971.77
2018-08-17T11:16:56.820Z,971.77
2018-08-17T11:17:56.800Z,971.73
2018-08-17T11:18:56.791Z,971.72
2018-08-17T11:19:56.799Z,971.69
2018-08-17T11:20:56.799Z,971.71
2018-08-17T11:21:56.801Z,971.72
2018-08-17T11:22:56.842Z,971.70
2018-08-17T11:23:56.815Z,971.68
2018-08-17T11:24:56.817Z,971.70
2018-08-17T11:25:56.819Z,971.68
2018-08-17T11:26:56.824Z,971.65
2018-08-17T11:27:56.832Z,971.62
2018-08-17T11:28:56.836Z,971.64
2018-08-17T11:29:56.831Z,971.62
2018-08-17T11:30:56.834Z,971.63
2018-08-17T11:31:56.841Z,971.60
2018-08-17T11:32:56.842Z,971.58
2018-08-17T11:33:56.849Z,971.57
2018-08-17T11:34:56.852Z,971.54
2018-08-17T11:35:56.854Z,971.56
2018-08-17T11:36:56.856Z,971.54
2018-08-17T11:37:56.861Z,971.54
2018-08-17T11:38:56.863Z,971.53
2018-08-17T11:39:56.866Z,971.54
2018-08-17T11:40:56.870Z,971.53
2018-08-17T11:41:56.880Z,971.48
2018-08-17T11:42:56.881Z,971.53
2018-08-17T11:43:56.887Z,971.56
2018-08-17T11:44:56.884Z,971.53
2018-08-17T11:45:56.894Z,971.52
2018-08-17T11:46:56.894Z,971.49
2018-08-17T11:47:56.900Z,971.49
2018-08-17T11:48:56.905Z,971.48
2018-08-17T11:49:56.907Z,971.49
2018-08-17T11:50:56.908Z,971.49
2018-08-17T11:51:56.917Z,971.39
2018-08-17T11:52:56.919Z,971.39
2018-08-17T11:53:57.005Z,971.39
2018-08-17T11:54:56.929Z,971.39
2018-08-17T11:55:56.925Z,971.42
2018-08-17T11:56:56.930Z,971.46
2018-08-17T11:57:56.936Z,971.48
2018-08-17T11:58:56.936Z,971.49
2018-08-17T11:59:56.946Z,971.55
2018-08-17T12:00:56.944Z,971.54
2018-08-17T12:01:56.997Z,971.49
2018-08-17T12:02:56.951Z,971.48
2018-08-17T12:03:56.961Z,971.50
2018-08-17T12:04:56.956Z,971.48
2018-08-17T12:05:56.959Z,971.45
2018-08-17T12:06:56.971Z,971.44
2018-08-17T12:07:56.971Z,971.39
2018-08-17T12:08:56.974Z,971.40
2018-08-17T12:09:56.977Z,971.43
2018-08-17T12:10:56.986Z,971.42
2018-08-17T12:11:56.982Z,971.36
2018-08-17T12:12:56.987Z,971.39
2018-08-17T12:13:56.990Z,971.35
2018-08-17T12:14:56.993Z,971.39
2018-08-17T12:15:57.001Z,971.38
2018-08-17T12:16:56.999Z,971.39
2018-08-17T12:17:57.004Z,971.36
2018-08-17T12:18:57.009Z,971.35
2018-08-17T12:19:57.013Z,971.36
2018-08-17T12:20:57.014Z,971.38
2018-08-17T12:21:57.023Z,971.35
2018-08-17T12:22:57.030Z,971.35
2018-08-17T12:23:57.035Z,971.31
2018-08-17T12:24:57.056Z,971.32
2018-08-17T12:25:57.041Z,971.30
2018-08-17T12:26:57.042Z,971.29
2018-08-17T12:27:57.046Z,971.29
2018-08-17T12:28:57.054Z,971.20